sensor_id;sensor_type;location;lat;lon;timestamp;P1;durP1;ratioP1;P2;durP2;ratioP2
65863;SDS011;52639;51.180;20.460;2023-08-06T00:00:46;13.90;;;9.55;;
65863;SDS011;52639;51.180;20.460;2023-08-06T00:04:49;15.00;;;9.65;;
65863;SDS011;52639;51.180;20.460;2023-08-06T00:08:56;18.15;;;10.73;;
65863;SDS011;52639;51.180;20.460;2023-08-06T00:12:59;22.17;;;12.60;;
65863;SDS011;52639;51.180;20.460;2023-08-06T00:17:01;24.60;;;12.80;;
65863;SDS011;52639;51.180;20.460;2023-08-06T00:21:05;19.88;;;11.50;;
65863;SDS011;52639;51.180;20.460;2023-08-06T00:25:10;19.35;;;11.38;;
65863;SDS011;52639;51.180;20.460;2023-08-06T00:29:13;21.20;;;12.27;;
65863;SDS011;52639;51.180;20.460;2023-08-06T00:33:15;22.55;;;12.73;;
65863;SDS011;52639;51.180;20.460;2023-08-06T00:37:18;21.73;;;12.63;;
65863;SDS011;52639;51.180;20.460;2023-08-06T00:41:22;24.25;;;13.70;;
65863;SDS011;52639;51.180;20.460;2023-08-06T00:45:25;32.28;;;15.93;;
65863;SDS011;52639;51.180;20.460;2023-08-06T00:49:30;32.72;;;15.13;;
65863;SDS011;52639;51.180;20.460;2023-08-06T00:53:33;31.55;;;15.80;;
65863;SDS011;52639;51.180;20.460;2023-08-06T00:57:37;33.88;;;16.13;;
65863;SDS011;52639;51.180;20.460;2023-08-06T01:01:40;38.05;;;17.25;;
65863;SDS011;52639;51.180;20.460;2023-08-06T01:05:43;37.22;;;17.17;;
65863;SDS011;52639;51.180;20.460;2023-08-06T01:09:49;35.05;;;15.70;;
65863;SDS011;52639;51.180;20.460;2023-08-06T01:14:02;37.63;;;16.65;;
65863;SDS011;52639;51.180;20.460;2023-08-06T01:18:10;27.92;;;14.75;;
65863;SDS011;52639;51.180;20.460;2023-08-06T01:22:14;24.85;;;13.00;;
65863;SDS011;52639;51.180;20.460;2023-08-06T01:26:19;26.52;;;13.25;;
65863;SDS011;52639;51.180;20.460;2023-08-06T01:30:27;25.67;;;11.73;;
65863;SDS011;52639;51.180;20.460;2023-08-06T01:34:36;26.98;;;14.20;;
65863;SDS011;52639;51.180;20.460;2023-08-06T01:38:43;29.45;;;13.95;;
65863;SDS011;52639;51.180;20.460;2023-08-06T01:42:47;31.90;;;14.15;;
65863;SDS011;52639;51.180;20.460;2023-08-06T01:46:50;35.22;;;13.82;;
65863;SDS011;52639;51.180;20.460;2023-08-06T01:50:54;25.50;;;12.85;;
65863;SDS011;52639;51.180;20.460;2023-08-06T01:54:58;26.20;;;11.88;;
65863;SDS011;52639;51.180;20.460;2023-08-06T01:59:01;24.73;;;12.35;;
65863;SDS011;52639;51.180;20.460;2023-08-06T02:03:04;31.55;;;12.93;;
65863;SDS011;52639;51.180;20.460;2023-08-06T02:07:07;34.13;;;14.40;;
65863;SDS011;52639;51.180;20.460;2023-08-06T02:11:12;27.10;;;11.68;;
65863;SDS011;52639;51.180;20.460;2023-08-06T02:15:19;31.92;;;11.93;;
65863;SDS011;52639;51.180;20.460;2023-08-06T02:19:22;34.78;;;13.55;;
65863;SDS011;52639;51.180;20.460;2023-08-06T02:23:25;36.55;;;13.43;;
65863;SDS011;52639;51.180;20.460;2023-08-06T02:27:30;37.70;;;14.10;;
65863;SDS011;52639;51.180;20.460;2023-08-06T02:31:33;36.08;;;13.35;;
65863;SDS011;52639;51.180;20.460;2023-08-06T02:35:36;40.10;;;12.48;;
65863;SDS011;52639;51.180;20.460;2023-08-06T02:39:40;36.22;;;13.93;;
65863;SDS011;52639;51.180;20.460;2023-08-06T02:43:45;33.50;;;13.43;;
65863;SDS011;52639;51.180;20.460;2023-08-06T02:47:48;31.90;;;13.07;;
65863;SDS011;52639;51.180;20.460;2023-08-06T02:51:51;23.80;;;12.07;;
65863;SDS011;52639;51.180;20.460;2023-08-06T02:55:55;30.50;;;12.48;;
65863;SDS011;52639;51.180;20.460;2023-08-06T02:59:59;25.25;;;11.75;;
65863;SDS011;52639;51.180;20.460;2023-08-06T03:04:02;27.25;;;12.85;;
65863;SDS011;52639;51.180;20.460;2023-08-06T03:08:05;23.83;;;11.68;;
65863;SDS011;52639;51.180;20.460;2023-08-06T03:12:08;22.67;;;11.68;;
65863;SDS011;52639;51.180;20.460;2023-08-06T03:16:13;27.35;;;12.50;;
65863;SDS011;52639;51.180;20.460;2023-08-06T03:20:16;21.48;;;10.77;;
65863;SDS011;52639;51.180;20.460;2023-08-06T03:24:19;22.58;;;12.13;;
65863;SDS011;52639;51.180;20.460;2023-08-06T03:28:22;22.95;;;10.90;;
65863;SDS011;52639;51.180;20.460;2023-08-06T03:32:27;22.33;;;11.82;;
65863;SDS011;52639;51.180;20.460;2023-08-06T03:36:30;23.05;;;11.48;;
65863;SDS011;52639;51.180;20.460;2023-08-06T03:40:34;24.33;;;10.82;;
65863;SDS011;52639;51.180;20.460;2023-08-06T03:44:38;16.48;;;9.13;;
65863;SDS011;52639;51.180;20.460;2023-08-06T03:48:43;20.02;;;10.40;;
65863;SDS011;52639;51.180;20.460;2023-08-06T03:52:45;19.42;;;10.32;;
65863;SDS011;52639;51.180;20.460;2023-08-06T03:56:48;16.95;;;9.77;;
65863;SDS011;52639;51.180;20.460;2023-08-06T04:00:57;19.88;;;11.38;;
65863;SDS011;52639;51.180;20.460;2023-08-06T04:05:02;18.65;;;10.18;;
65863;SDS011;52639;51.180;20.460;2023-08-06T04:09:05;13.40;;;8.77;;
65863;SDS011;52639;51.180;20.460;2023-08-06T04:13:10;14.90;;;8.82;;
65863;SDS011;52639;51.180;20.460;2023-08-06T04:17:12;19.40;;;11.13;;
65863;SDS011;52639;51.180;20.460;2023-08-06T04:21:18;15.68;;;9.20;;
65863;SDS011;52639;51.180;20.460;2023-08-06T04:25:21;18.60;;;9.45;;
65863;SDS011;52639;51.180;20.460;2023-08-06T04:29:24;16.42;;;9.23;;
65863;SDS011;52639;51.180;20.460;2023-08-06T04:33:27;20.38;;;10.93;;
65863;SDS011;52639;51.180;20.460;2023-08-06T04:37:31;20.05;;;10.32;;
65863;SDS011;52639;51.180;20.460;2023-08-06T04:41:34;19.77;;;10.73;;
65863;SDS011;52639;51.180;20.460;2023-08-06T04:45:37;20.13;;;11.80;;
65863;SDS011;52639;51.180;20.460;2023-08-06T04:49:40;21.30;;;11.68;;
65863;SDS011;52639;51.180;20.460;2023-08-06T04:53:45;21.45;;;11.43;;
65863;SDS011;52639;51.180;20.460;2023-08-06T04:57:48;24.33;;;11.93;;
65863;SDS011;52639;51.180;20.460;2023-08-06T05:01:51;22.52;;;11.90;;
65863;SDS011;52639;51.180;20.460;2023-08-06T05:05:54;19.67;;;11.75;;
65863;SDS011;52639;51.180;20.460;2023-08-06T05:09:58;19.98;;;12.35;;
65863;SDS011;52639;51.180;20.460;2023-08-06T05:14:01;19.88;;;11.77;;
65863;SDS011;52639;51.180;20.460;2023-08-06T05:18:04;18.45;;;11.80;;
65863;SDS011;52639;51.180;20.460;2023-08-06T05:22:07;20.58;;;12.65;;
65863;SDS011;52639;51.180;20.460;2023-08-06T05:26:12;21.20;;;12.25;;
65863;SDS011;52639;51.180;20.460;2023-08-06T05:30:19;18.48;;;11.55;;
65863;SDS011;52639;51.180;20.460;2023-08-06T05:34:22;18.00;;;11.48;;
65863;SDS011;52639;51.180;20.460;2023-08-06T05:38:25;19.38;;;11.60;;
65863;SDS011;52639;51.180;20.460;2023-08-06T05:42:29;18.27;;;12.30;;
65863;SDS011;52639;51.180;20.460;2023-08-06T05:46:32;18.83;;;12.50;;
65863;SDS011;52639;51.180;20.460;2023-08-06T05:50:35;17.23;;;11.93;;
65863;SDS011;52639;51.180;20.460;2023-08-06T05:54:38;17.00;;;11.20;;
65863;SDS011;52639;51.180;20.460;2023-08-06T05:58:43;20.27;;;12.18;;
65863;SDS011;52639;51.180;20.460;2023-08-06T06:02:47;18.13;;;12.52;;
65863;SDS011;52639;51.180;20.460;2023-08-06T06:06:50;17.75;;;11.98;;
65863;SDS011;52639;51.180;20.460;2023-08-06T06:10:53;16.25;;;10.88;;
65863;SDS011;52639;51.180;20.460;2023-08-06T06:14:57;18.55;;;11.27;;
65863;SDS011;52639;51.180;20.460;2023-08-06T06:19:02;17.05;;;11.38;;
65863;SDS011;52639;51.180;20.460;2023-08-06T06:23:05;16.63;;;11.57;;
65863;SDS011;52639;51.180;20.460;2023-08-06T06:27:08;18.15;;;11.90;;
65863;SDS011;52639;51.180;20.460;2023-08-06T06:31:12;16.05;;;11.77;;
65863;SDS011;52639;51.180;20.460;2023-08-06T06:35:15;16.83;;;10.75;;
65863;SDS011;52639;51.180;20.460;2023-08-06T06:39:20;14.07;;;10.50;;
65863;SDS011;52639;51.180;20.460;2023-08-06T06:43:28;16.65;;;11.05;;
65863;SDS011;52639;51.180;20.460;2023-08-06T06:47:33;15.77;;;11.07;;
65863;SDS011;52639;51.180;20.460;2023-08-06T06:51:36;12.60;;;9.98;;
65863;SDS011;52639;51.180;20.460;2023-08-06T06:55:39;14.38;;;10.52;;
65863;SDS011;52639;51.180;20.460;2023-08-06T06:59:45;13.18;;;9.93;;
65863;SDS011;52639;51.180;20.460;2023-08-06T07:04:31;13.75;;;10.70;;
65863;SDS011;52639;51.180;20.460;2023-08-06T07:08:34;14.18;;;9.68;;
65863;SDS011;52639;51.180;20.460;2023-08-06T07:12:37;13.73;;;10.10;;
65863;SDS011;52639;51.180;20.460;2023-08-06T07:16:40;16.73;;;10.20;;
65863;SDS011;52639;51.180;20.460;2023-08-06T07:20:49;13.60;;;9.95;;
65863;SDS011;52639;51.180;20.460;2023-08-06T07:24:52;14.00;;;10.45;;
65863;SDS011;52639;51.180;20.460;2023-08-06T07:28:58;13.75;;;10.13;;
65863;SDS011;52639;51.180;20.460;2023-08-06T07:33:01;14.20;;;10.50;;
65863;SDS011;52639;51.180;20.460;2023-08-06T07:37:06;15.05;;;10.77;;
65863;SDS011;52639;51.180;20.460;2023-08-06T07:41:13;15.88;;;10.98;;
65863;SDS011;52639;51.180;20.460;2023-08-06T07:45:16;14.00;;;10.98;;
65863;SDS011;52639;51.180;20.460;2023-08-06T07:49:19;15.05;;;11.13;;
65863;SDS011;52639;51.180;20.460;2023-08-06T07:53:24;15.90;;;11.32;;
65863;SDS011;52639;51.180;20.460;2023-08-06T07:57:30;16.65;;;11.02;;
65863;SDS011;52639;51.180;20.460;2023-08-06T08:01:33;15.30;;;10.93;;
65863;SDS011;52639;51.180;20.460;2023-08-06T08:05:37;16.50;;;11.30;;
65863;SDS011;52639;51.180;20.460;2023-08-06T08:09:41;16.17;;;11.73;;
65863;SDS011;52639;51.180;20.460;2023-08-06T08:13:44;15.05;;;11.52;;
65863;SDS011;52639;51.180;20.460;2023-08-06T08:17:48;15.73;;;11.48;;
65863;SDS011;52639;51.180;20.460;2023-08-06T08:21:51;18.30;;;11.60;;
65863;SDS011;52639;51.180;20.460;2023-08-06T08:25:57;16.75;;;11.82;;
65863;SDS011;52639;51.180;20.460;2023-08-06T08:30:01;15.40;;;11.38;;
65863;SDS011;52639;51.180;20.460;2023-08-06T08:34:04;15.52;;;11.77;;
65863;SDS011;52639;51.180;20.460;2023-08-06T08:38:07;15.95;;;12.43;;
65863;SDS011;52639;51.180;20.460;2023-08-06T08:42:11;16.85;;;11.50;;
65863;SDS011;52639;51.180;20.460;2023-08-06T08:46:15;14.85;;;11.85;;
65863;SDS011;52639;51.180;20.460;2023-08-06T08:50:18;16.85;;;12.00;;
65863;SDS011;52639;51.180;20.460;2023-08-06T08:54:20;17.50;;;12.10;;
65863;SDS011;52639;51.180;20.460;2023-08-06T08:58:27;18.40;;;12.90;;
65863;SDS011;52639;51.180;20.460;2023-08-06T09:02:31;17.67;;;13.00;;
65863;SDS011;52639;51.180;20.460;2023-08-06T09:06:37;16.27;;;12.45;;
65863;SDS011;52639;51.180;20.460;2023-08-06T09:10:44;15.63;;;12.07;;
65863;SDS011;52639;51.180;20.460;2023-08-06T09:15:11;15.02;;;11.35;;
65863;SDS011;52639;51.180;20.460;2023-08-06T09:19:22;14.00;;;10.40;;
65863;SDS011;52639;51.180;20.460;2023-08-06T09:23:30;12.05;;;10.63;;
65863;SDS011;52639;51.180;20.460;2023-08-06T09:27:35;12.05;;;9.95;;
65863;SDS011;52639;51.180;20.460;2023-08-06T09:31:43;12.20;;;9.95;;
65863;SDS011;52639;51.180;20.460;2023-08-06T09:35:47;11.10;;;9.45;;
65863;SDS011;52639;51.180;20.460;2023-08-06T09:39:50;11.68;;;8.77;;
65863;SDS011;52639;51.180;20.460;2023-08-06T09:43:55;11.35;;;8.60;;
65863;SDS011;52639;51.180;20.460;2023-08-06T09:48:02;12.13;;;8.38;;
65863;SDS011;52639;51.180;20.460;2023-08-06T09:52:06;10.43;;;7.68;;
65863;SDS011;52639;51.180;20.460;2023-08-06T09:56:14;10.55;;;8.20;;
65863;SDS011;52639;51.180;20.460;2023-08-06T10:00:20;13.18;;;8.05;;
65863;SDS011;52639;51.180;20.460;2023-08-06T10:04:27;10.27;;;8.45;;
65863;SDS011;52639;51.180;20.460;2023-08-06T10:08:33;8.70;;;7.68;;
65863;SDS011;52639;51.180;20.460;2023-08-06T10:12:39;12.48;;;8.27;;
65863;SDS011;52639;51.180;20.460;2023-08-06T10:16:45;9.07;;;7.68;;
65863;SDS011;52639;51.180;20.460;2023-08-06T10:20:52;9.63;;;7.82;;
65863;SDS011;52639;51.180;20.460;2023-08-06T10:24:56;9.98;;;7.60;;
65863;SDS011;52639;51.180;20.460;2023-08-06T10:29:05;10.77;;;7.47;;
65863;SDS011;52639;51.180;20.460;2023-08-06T10:33:42;10.45;;;7.70;;
65863;SDS011;52639;51.180;20.460;2023-08-06T10:37:47;8.10;;;6.72;;
65863;SDS011;52639;51.180;20.460;2023-08-06T10:41:50;9.52;;;7.00;;
65863;SDS011;52639;51.180;20.460;2023-08-06T10:45:53;8.23;;;6.50;;
65863;SDS011;52639;51.180;20.460;2023-08-06T10:49:56;9.00;;;6.80;;
65863;SDS011;52639;51.180;20.460;2023-08-06T10:54:11;8.05;;;6.28;;
65863;SDS011;52639;51.180;20.460;2023-08-06T10:58:18;8.05;;;6.78;;
65863;SDS011;52639;51.180;20.460;2023-08-06T11:02:26;8.23;;;6.20;;
65863;SDS011;52639;51.180;20.460;2023-08-06T11:06:32;5.40;;;4.38;;
65863;SDS011;52639;51.180;20.460;2023-08-06T11:10:39;7.32;;;5.00;;
65863;SDS011;52639;51.180;20.460;2023-08-06T11:15:12;8.98;;;6.43;;
65863;SDS011;52639;51.180;20.460;2023-08-06T11:19:15;6.22;;;4.25;;
65863;SDS011;52639;51.180;20.460;2023-08-06T11:23:18;4.22;;;3.20;;
65863;SDS011;52639;51.180;20.460;2023-08-06T11:27:22;3.95;;;2.88;;
65863;SDS011;52639;51.180;20.460;2023-08-06T11:31:25;7.07;;;4.13;;
65863;SDS011;52639;51.180;20.460;2023-08-06T11:35:28;6.20;;;3.67;;
65863;SDS011;52639;51.180;20.460;2023-08-06T11:39:32;4.95;;;3.67;;
65863;SDS011;52639;51.180;20.460;2023-08-06T11:43:37;3.53;;;2.67;;
65863;SDS011;52639;51.180;20.460;2023-08-06T11:47:40;3.67;;;2.60;;
65863;SDS011;52639;51.180;20.460;2023-08-06T11:51:45;6.50;;;3.10;;
65863;SDS011;52639;51.180;20.460;2023-08-06T11:55:47;6.72;;;3.20;;
65863;SDS011;52639;51.180;20.460;2023-08-06T11:59:53;4.90;;;2.45;;
65863;SDS011;52639;51.180;20.460;2023-08-06T12:03:58;2.70;;;2.20;;
65863;SDS011;52639;51.180;20.460;2023-08-06T12:08:03;3.60;;;2.28;;
65863;SDS011;52639;51.180;20.460;2023-08-06T12:12:06;2.67;;;2.00;;
65863;SDS011;52639;51.180;20.460;2023-08-06T12:16:10;2.95;;;1.80;;
65863;SDS011;52639;51.180;20.460;2023-08-06T12:20:14;2.25;;;1.73;;
65863;SDS011;52639;51.180;20.460;2023-08-06T12:24:17;1.58;;;1.30;;
65863;SDS011;52639;51.180;20.460;2023-08-06T12:28:23;2.88;;;1.50;;
65863;SDS011;52639;51.180;20.460;2023-08-06T12:32:29;1.95;;;1.40;;
65863;SDS011;52639;51.180;20.460;2023-08-06T12:36:32;2.85;;;1.50;;
65863;SDS011;52639;51.180;20.460;2023-08-06T12:40:35;2.80;;;1.33;;
65863;SDS011;52639;51.180;20.460;2023-08-06T12:44:38;1.73;;;1.13;;
65863;SDS011;52639;51.180;20.460;2023-08-06T12:48:42;1.27;;;0.80;;
65863;SDS011;52639;51.180;20.460;2023-08-06T12:52:45;1.08;;;0.93;;
65863;SDS011;52639;51.180;20.460;2023-08-06T12:56:48;1.35;;;1.10;;
65863;SDS011;52639;51.180;20.460;2023-08-06T13:00:51;1.42;;;1.30;;
65863;SDS011;52639;51.180;20.460;2023-08-06T13:04:57;2.63;;;2.00;;
65863;SDS011;52639;51.180;20.460;2023-08-06T13:09:04;1.00;;;1.00;;
65863;SDS011;52639;51.180;20.460;2023-08-06T13:13:10;1.58;;;1.23;;
65863;SDS011;52639;51.180;20.460;2023-08-06T13:17:14;1.85;;;1.50;;
65863;SDS011;52639;51.180;20.460;2023-08-06T13:21:20;0.70;;;0.70;;
65863;SDS011;52639;51.180;20.460;2023-08-06T13:25:23;1.17;;;1.05;;
65863;SDS011;52639;51.180;20.460;2023-08-06T13:29:27;9.05;;;6.25;;
65863;SDS011;52639;51.180;20.460;2023-08-06T13:33:30;1.60;;;1.10;;
65863;SDS011;52639;51.180;20.460;2023-08-06T13:37:35;0.93;;;0.90;;
65863;SDS011;52639;51.180;20.460;2023-08-06T13:41:40;1.33;;;0.77;;
65863;SDS011;52639;51.180;20.460;2023-08-06T13:45:47;1.48;;;1.27;;
65863;SDS011;52639;51.180;20.460;2023-08-06T13:49:50;1.38;;;1.10;;
65863;SDS011;52639;51.180;20.460;2023-08-06T13:53:55;1.45;;;1.30;;
65863;SDS011;52639;51.180;20.460;2023-08-06T13:57:59;2.40;;;2.20;;
65863;SDS011;52639;51.180;20.460;2023-08-06T14:02:04;1.50;;;1.30;;
65863;SDS011;52639;51.180;20.460;2023-08-06T14:06:08;1.30;;;1.20;;
65863;SDS011;52639;51.180;20.460;2023-08-06T14:10:16;6.50;;;2.67;;
65863;SDS011;52639;51.180;20.460;2023-08-06T14:14:21;5.95;;;4.72;;
65863;SDS011;52639;51.180;20.460;2023-08-06T14:18:27;1.35;;;1.25;;
65863;SDS011;52639;51.180;20.460;2023-08-06T14:22:30;3.17;;;1.40;;
65863;SDS011;52639;51.180;20.460;2023-08-06T14:26:36;3.85;;;1.30;;
65863;SDS011;52639;51.180;20.460;2023-08-06T14:30:39;2.20;;;1.60;;
65863;SDS011;52639;51.180;20.460;2023-08-06T14:34:43;2.80;;;1.67;;
65863;SDS011;52639;51.180;20.460;2023-08-06T14:38:46;2.50;;;1.70;;
65863;SDS011;52639;51.180;20.460;2023-08-06T14:42:52;2.75;;;1.70;;
65863;SDS011;52639;51.180;20.460;2023-08-06T14:46:57;2.35;;;2.15;;
65863;SDS011;52639;51.180;20.460;2023-08-06T14:51:01;4.97;;;2.22;;
65863;SDS011;52639;51.180;20.460;2023-08-06T14:55:05;2.00;;;1.80;;
65863;SDS011;52639;51.180;20.460;2023-08-06T14:59:10;4.22;;;2.13;;
65863;SDS011;52639;51.180;20.460;2023-08-06T15:03:14;2.65;;;1.60;;
65863;SDS011;52639;51.180;20.460;2023-08-06T15:07:19;2.95;;;1.48;;
65863;SDS011;52639;51.180;20.460;2023-08-06T15:11:26;2.00;;;1.77;;
65863;SDS011;52639;51.180;20.460;2023-08-06T15:15:33;1.92;;;1.52;;
65863;SDS011;52639;51.180;20.460;2023-08-06T15:19:36;1.52;;;1.42;;
65863;SDS011;52639;51.180;20.460;2023-08-06T15:23:43;1.98;;;1.20;;
65863;SDS011;52639;51.180;20.460;2023-08-06T15:27:51;1.10;;;1.10;;
65863;SDS011;52639;51.180;20.460;2023-08-06T15:31:58;1.63;;;1.30;;
65863;SDS011;52639;51.180;20.460;2023-08-06T15:36:02;3.15;;;1.50;;
65863;SDS011;52639;51.180;20.460;2023-08-06T15:40:07;4.18;;;2.17;;
65863;SDS011;52639;51.180;20.460;2023-08-06T15:44:11;2.05;;;1.55;;
65863;SDS011;52639;51.180;20.460;2023-08-06T15:48:21;0.95;;;0.95;;
65863;SDS011;52639;51.180;20.460;2023-08-06T15:52:24;1.60;;;1.10;;
65863;SDS011;52639;51.180;20.460;2023-08-06T15:56:29;1.73;;;1.25;;
65863;SDS011;52639;51.180;20.460;2023-08-06T16:00:38;1.30;;;0.82;;
65863;SDS011;52639;51.180;20.460;2023-08-06T16:04:49;2.28;;;1.42;;
65863;SDS011;52639;51.180;20.460;2023-08-06T16:08:53;0.65;;;0.65;;
65863;SDS011;52639;51.180;20.460;2023-08-06T16:12:57;1.70;;;1.10;;
65863;SDS011;52639;51.180;20.460;2023-08-06T16:17:01;1.50;;;0.65;;
65863;SDS011;52639;51.180;20.460;2023-08-06T16:21:08;0.75;;;0.70;;
65863;SDS011;52639;51.180;20.460;2023-08-06T16:25:12;1.45;;;0.90;;
65863;SDS011;52639;51.180;20.460;2023-08-06T16:29:18;1.15;;;0.57;;
65863;SDS011;52639;51.180;20.460;2023-08-06T16:33:23;1.05;;;0.80;;
65863;SDS011;52639;51.180;20.460;2023-08-06T16:37:28;0.95;;;0.75;;
65863;SDS011;52639;51.180;20.460;2023-08-06T16:41:33;1.45;;;0.60;;
65863;SDS011;52639;51.180;20.460;2023-08-06T16:45:37;0.60;;;0.60;;
65863;SDS011;52639;51.180;20.460;2023-08-06T16:49:41;0.82;;;0.82;;
65863;SDS011;52639;51.180;20.460;2023-08-06T16:53:47;0.98;;;0.90;;
65863;SDS011;52639;51.180;20.460;2023-08-06T16:57:51;1.27;;;0.70;;
65863;SDS011;52639;51.180;20.460;2023-08-06T17:01:55;2.25;;;0.80;;
65863;SDS011;52639;51.180;20.460;2023-08-06T17:06:06;0.77;;;0.77;;
65863;SDS011;52639;51.180;20.460;2023-08-06T17:10:18;1.10;;;0.90;;
65863;SDS011;52639;51.180;20.460;2023-08-06T17:14:23;2.90;;;2.38;;
65863;SDS011;52639;51.180;20.460;2023-08-06T17:18:33;29.65;;;17.90;;
65863;SDS011;52639;51.180;20.460;2023-08-06T17:22:40;20.15;;;11.60;;
65863;SDS011;52639;51.180;20.460;2023-08-06T17:26:52;8.63;;;5.65;;
65863;SDS011;52639;51.180;20.460;2023-08-06T17:31:01;10.85;;;7.45;;
65863;SDS011;52639;51.180;20.460;2023-08-06T17:35:09;12.48;;;9.30;;
65863;SDS011;52639;51.180;20.460;2023-08-06T17:43:37;5.68;;;3.42;;
65863;SDS011;52639;51.180;20.460;2023-08-06T17:47:55;3.37;;;2.07;;
65863;SDS011;52639;51.180;20.460;2023-08-06T17:52:16;3.30;;;1.23;;
65863;SDS011;52639;51.180;20.460;2023-08-06T17:56:21;2.30;;;1.10;;
65863;SDS011;52639;51.180;20.460;2023-08-06T18:00:27;5.43;;;1.42;;
65863;SDS011;52639;51.180;20.460;2023-08-06T18:04:31;1.52;;;1.33;;
65863;SDS011;52639;51.180;20.460;2023-08-06T18:08:35;4.28;;;1.50;;
65863;SDS011;52639;51.180;20.460;2023-08-06T18:12:39;4.07;;;1.88;;
65863;SDS011;52639;51.180;20.460;2023-08-06T18:16:46;2.88;;;1.52;;
65863;SDS011;52639;51.180;20.460;2023-08-06T18:20:50;4.18;;;2.15;;
65863;SDS011;52639;51.180;20.460;2023-08-06T18:24:55;2.97;;;1.92;;
65863;SDS011;52639;51.180;20.460;2023-08-06T18:29:03;3.42;;;1.95;;
65863;SDS011;52639;51.180;20.460;2023-08-06T18:33:08;1.48;;;1.15;;
65863;SDS011;52639;51.180;20.460;2023-08-06T18:37:13;1.85;;;1.30;;
65863;SDS011;52639;51.180;20.460;2023-08-06T18:41:17;3.25;;;1.52;;
65863;SDS011;52639;51.180;20.460;2023-08-06T18:45:23;3.30;;;1.77;;
65863;SDS011;52639;51.180;20.460;2023-08-06T18:49:27;2.83;;;1.77;;
65863;SDS011;52639;51.180;20.460;2023-08-06T18:53:31;2.22;;;1.40;;
65863;SDS011;52639;51.180;20.460;2023-08-06T18:57:36;4.13;;;1.90;;
65863;SDS011;52639;51.180;20.460;2023-08-06T19:01:42;8.55;;;3.38;;
65863;SDS011;52639;51.180;20.460;2023-08-06T19:05:50;2.55;;;1.35;;
65863;SDS011;52639;51.180;20.460;2023-08-06T19:09:56;1.30;;;1.20;;
65863;SDS011;52639;51.180;20.460;2023-08-06T19:14:03;2.67;;;1.20;;
65863;SDS011;52639;51.180;20.460;2023-08-06T19:18:07;2.33;;;1.20;;
65863;SDS011;52639;51.180;20.460;2023-08-06T19:22:13;6.07;;;1.50;;
65863;SDS011;52639;51.180;20.460;2023-08-06T19:26:17;3.20;;;1.30;;
65863;SDS011;52639;51.180;20.460;2023-08-06T19:30:23;3.17;;;1.70;;
65863;SDS011;52639;51.180;20.460;2023-08-06T19:34:29;1.80;;;1.33;;
65863;SDS011;52639;51.180;20.460;2023-08-06T19:38:41;3.55;;;1.58;;
65863;SDS011;52639;51.180;20.460;2023-08-06T19:42:46;4.47;;;1.33;;
65863;SDS011;52639;51.180;20.460;2023-08-06T19:46:51;4.60;;;1.10;;
65863;SDS011;52639;51.180;20.460;2023-08-06T19:50:57;1.48;;;1.17;;
65863;SDS011;52639;51.180;20.460;2023-08-06T19:55:03;1.15;;;1.00;;
65863;SDS011;52639;51.180;20.460;2023-08-06T19:59:09;1.70;;;0.90;;
65863;SDS011;52639;51.180;20.460;2023-08-06T20:03:15;1.90;;;1.08;;
65863;SDS011;52639;51.180;20.460;2023-08-06T20:07:19;2.85;;;1.50;;
65863;SDS011;52639;51.180;20.460;2023-08-06T20:11:26;0.90;;;0.90;;
65863;SDS011;52639;51.180;20.460;2023-08-06T20:15:31;1.85;;;1.30;;
65863;SDS011;52639;51.180;20.460;2023-08-06T20:19:37;0.90;;;0.90;;
65863;SDS011;52639;51.180;20.460;2023-08-06T20:23:42;3.17;;;1.20;;
65863;SDS011;52639;51.180;20.460;2023-08-06T20:27:46;0.98;;;0.98;;
65863;SDS011;52639;51.180;20.460;2023-08-06T20:31:49;1.27;;;1.08;;
65863;SDS011;52639;51.180;20.460;2023-08-06T20:35:54;1.88;;;1.40;;
65863;SDS011;52639;51.180;20.460;2023-08-06T20:39:59;4.38;;;1.50;;
65863;SDS011;52639;51.180;20.460;2023-08-06T20:44:06;2.75;;;1.55;;
65863;SDS011;52639;51.180;20.460;2023-08-06T20:48:09;3.75;;;1.50;;
65863;SDS011;52639;51.180;20.460;2023-08-06T20:52:13;1.38;;;1.15;;
65863;SDS011;52639;51.180;20.460;2023-08-06T20:56:17;2.42;;;1.20;;
65863;SDS011;52639;51.180;20.460;2023-08-06T21:00:22;1.20;;;1.10;;
65863;SDS011;52639;51.180;20.460;2023-08-06T21:04:25;1.20;;;1.10;;
65863;SDS011;52639;51.180;20.460;2023-08-06T21:08:28;1.27;;;1.00;;
65863;SDS011;52639;51.180;20.460;2023-08-06T21:12:31;2.63;;;1.13;;
65863;SDS011;52639;51.180;20.460;2023-08-06T21:16:36;1.20;;;1.10;;
65863;SDS011;52639;51.180;20.460;2023-08-06T21:20:40;2.63;;;1.02;;
65863;SDS011;52639;51.180;20.460;2023-08-06T21:24:42;2.33;;;0.77;;
65863;SDS011;52639;51.180;20.460;2023-08-06T21:28:45;2.55;;;0.90;;
65863;SDS011;52639;51.180;20.460;2023-08-06T21:32:50;2.08;;;1.17;;
65863;SDS011;52639;51.180;20.460;2023-08-06T21:36:52;1.17;;;1.08;;
65863;SDS011;52639;51.180;20.460;2023-08-06T21:40:59;1.27;;;1.20;;
65863;SDS011;52639;51.180;20.460;2023-08-06T21:45:04;2.50;;;1.05;;
65863;SDS011;52639;51.180;20.460;2023-08-06T21:49:09;1.00;;;1.00;;
65863;SDS011;52639;51.180;20.460;2023-08-06T21:53:15;1.00;;;1.00;;
65863;SDS011;52639;51.180;20.460;2023-08-06T21:57:18;1.20;;;1.10;;
65863;SDS011;52639;51.180;20.460;2023-08-06T22:01:21;1.20;;;0.95;;
65863;SDS011;52639;51.180;20.460;2023-08-06T22:05:25;1.23;;;1.13;;
65863;SDS011;52639;51.180;20.460;2023-08-06T22:09:28;1.50;;;1.40;;
65863;SDS011;52639;51.180;20.460;2023-08-06T22:13:30;1.70;;;1.60;;
65863;SDS011;52639;51.180;20.460;2023-08-06T22:17:33;2.53;;;1.58;;
65863;SDS011;52639;51.180;20.460;2023-08-06T22:21:38;1.50;;;1.40;;
65863;SDS011;52639;51.180;20.460;2023-08-06T22:25:41;3.45;;;1.50;;
65863;SDS011;52639;51.180;20.460;2023-08-06T22:29:43;2.47;;;1.52;;
65863;SDS011;52639;51.180;20.460;2023-08-06T22:33:46;3.33;;;1.48;;
65863;SDS011;52639;51.180;20.460;2023-08-06T22:37:51;1.92;;;1.63;;
65863;SDS011;52639;51.180;20.460;2023-08-06T22:41:53;1.52;;;1.40;;
65863;SDS011;52639;51.180;20.460;2023-08-06T22:45:56;3.25;;;1.55;;
65863;SDS011;52639;51.180;20.460;2023-08-06T22:50:00;2.33;;;1.50;;
65863;SDS011;52639;51.180;20.460;2023-08-06T22:54:05;7.22;;;2.00;;
65863;SDS011;52639;51.180;20.460;2023-08-06T22:58:08;1.83;;;1.63;;
65863;SDS011;52639;51.180;20.460;2023-08-06T23:02:11;3.97;;;1.80;;
65863;SDS011;52639;51.180;20.460;2023-08-06T23:06:14;3.88;;;2.13;;
65863;SDS011;52639;51.180;20.460;2023-08-06T23:10:18;3.63;;;1.60;;
65863;SDS011;52639;51.180;20.460;2023-08-06T23:14:21;5.25;;;1.70;;
65863;SDS011;52639;51.180;20.460;2023-08-06T23:18:24;2.40;;;1.73;;
65863;SDS011;52639;51.180;20.460;2023-08-06T23:22:27;3.35;;;1.77;;
65863;SDS011;52639;51.180;20.460;2023-08-06T23:26:31;3.50;;;1.60;;
65863;SDS011;52639;51.180;20.460;2023-08-06T23:30:34;1.77;;;1.60;;
65863;SDS011;52639;51.180;20.460;2023-08-06T23:34:37;3.33;;;1.60;;
65863;SDS011;52639;51.180;20.460;2023-08-06T23:38:40;1.92;;;1.50;;
65863;SDS011;52639;51.180;20.460;2023-08-06T23:42:44;1.60;;;1.30;;
65863;SDS011;52639;51.180;20.460;2023-08-06T23:46:47;4.07;;;1.50;;
65863;SDS011;52639;51.180;20.460;2023-08-06T23:50:50;3.20;;;1.63;;
65863;SDS011;52639;51.180;20.460;2023-08-06T23:54:53;3.70;;;1.80;;
65863;SDS011;52639;51.180;20.460;2023-08-06T23:58:58;1.90;;;1.67;;
